Springtown, Arkansas
Current Conditions -  °F | °C
As of 9:53 PM on Wednesday 28 Jan 2015 (Local Time) from KXNA Reporting Station
Clear Clear  
Wind Chill: 59°   Ceiling: Unl
Heat Index: 59°   Visibility: 10mi
Dew Point: 42°   Wind: 8mph
Humidity: 53%   Direction: 210°SSW
Pressure: 29.93"   Gusts: NA
Location:  36.2693°N, 94.4636°W
Report Text: KXNA 290353Z 21007KT 10SM CLR 15/06 A2993 RMK AO2 SLP128 T01500056
Loading
Personal Weather Stations






























Interactive Weather Map New forecast layout! Learn more

10-Day Weather Forecast

Advertisements
Track Severe Weather on mobile